Time;durP1;ratioP1;P1;durP2;ratioP2;P2;SDS_P1;SDS_P2;PMS_P1;PMS_P2;Temp;Humidity;BMP_temperature;BMP_pressure;BME280_temperature;BME280_humidity;BME280_pressure;Samples;Min_cycle;Max_cycle;Signal;HPM_P1;HPM_P2
2022/08/03 00:00:40;;;;;;;10.60;8.60;;;;;;;14.67;88.76;97467.20;110408;1247;69523;-74
2022/08/03 00:03:09;;;;;;;8.90;8.00;;;;;;;14.60;87.51;97474.20;110334;1247;69194;-74
2022/08/03 00:05:39;;;;;;;10.60;7.70;;;;;;;14.49;87.12;97474.23;110367;1247;59640;-73
2022/08/03 00:08:29;;;;;;;8.50;7.50;;;;;;;14.33;87.25;97470.73;110087;1247;59708;-73
2022/08/03 00:10:59;;;;;;;10.60;8.00;;;;;;;14.22;86.92;97464.30;110254;1247;70795;-74
2022/08/03 00:13:29;;;;;;;7.80;7.00;;;;;;;14.14;87.60;97462.50;110169;1247;69753;-74
2022/08/03 00:15:58;;;;;;;;;;;;;;;14.09;88.06;97461.05;110102;1247;69309;-76
2022/08/03 00:18:28;;;;;;;7.80;6.40;;;;;;;14.07;90.38;97458.98;110189;1247;59764;-74
2022/08/03 00:20:57;;;;;;;7.00;6.30;;;;;;;14.06;91.39;97460.41;110125;1247;59644;-74
2022/08/03 00:23:26;;;;;;;7.80;6.50;;;;;;;14.06;90.72;97463.29;110141;1247;71589;-74
2022/08/03 00:26:15;;;;;;;9.80;7.60;;;;;;;14.08;92.85;97458.71;110120;1247;68618;-74
2022/08/03 00:28:45;;;;;;;8.40;7.20;;;;;;;14.09;91.97;97454.61;110099;1247;69481;-75
2022/08/03 00:31:15;;;;;;;6.60;5.90;;;;;;;14.09;90.84;97451.63;110373;1247;60165;-74
2022/08/03 00:33:50;;;;;;;7.60;5.80;;;;;;;14.07;90.71;97451.73;110148;1247;59748;-74
2022/08/03 00:36:28;;;;;;;7.60;6.80;;;;;;;14.06;91.20;97456.77;110033;1247;71256;-74
2022/08/03 00:38:58;;;;;;;8.70;7.30;;;;;;;14.02;91.72;97456.95;110263;1246;69361;-74
2022/08/03 00:41:27;;;;;;;6.90;6.00;;;;;;;13.98;91.19;97456.34;110093;1246;69979;-73
2022/08/03 00:43:57;;;;;;;;;;;;;;;13.96;90.25;97457.29;110123;1247;59667;-73
2022/08/03 00:46:27;;;;;;;;;;;;;;;13.92;89.85;97453.75;110066;1247;59727;-74
2022/08/03 00:48:56;;;;;;;7.80;6.50;;;;;;;13.89;89.87;97456.09;110140;1247;71541;-74
2022/08/03 00:51:27;;;;;;;7.50;6.80;;;;;;;13.88;91.43;97453.04;110156;1247;69359;-74
2022/08/03 00:53:58;;;;;;;7.70;6.90;;;;;;;13.86;90.91;97453.94;110211;1247;68628;-76
2022/08/03 00:56:27;;;;;;;8.60;6.50;;;;;;;13.85;91.04;97451.61;110077;1247;59763;-73
2022/08/03 00:58:57;;;;;;;7.90;7.10;;;;;;;13.81;90.49;97452.05;110145;1246;59751;-74
2022/08/03 01:01:27;;;;;;;10.40;7.80;;;;;;;13.79;91.03;97451.20;110103;1247;70929;-73
2022/08/03 01:04:00;;;;;;;9.10;6.40;;;;;;;13.79;92.69;97452.94;110327;1247;69523;-74
2022/08/03 01:06:52;;;;;;;9.10;7.50;;;;;;;13.79;92.63;97458.21;110194;1247;69313;-74
2022/08/03 01:09:22;;;;;;;11.50;8.50;;;;;;;13.73;89.64;97454.81;110029;1247;59768;-76
2022/08/03 01:12:07;;;;;;;8.50;7.60;;;;;;;13.66;88.52;97454.58;110262;1247;59676;-73
2022/08/03 01:14:51;;;;;;;11.20;7.90;;;;;;;13.57;89.16;97458.52;110106;1247;71533;-73
2022/08/03 01:17:50;;;;;;;8.60;6.80;;;;;;;13.49;89.43;97456.00;110085;1247;69257;-73
2022/08/03 01:20:23;;;;;;;9.10;6.10;;;;;;;13.44;91.24;97455.34;109530;1247;68808;-74
2022/08/03 01:23:26;;;;;;;8.90;7.70;;;;;;;13.42;93.84;97452.52;110265;1247;59759;-74
2022/08/03 01:26:35;;;;;;;8.70;7.10;;;;;;;13.41;94.85;97453.16;110278;1247;59678;-74
2022/08/03 01:29:37;;;;;;;8.20;6.90;;;;;;;13.41;94.42;97450.40;110131;1247;71571;-76
2022/08/03 01:32:16;;;;;;;8.50;7.30;;;;;;;13.40;93.84;97449.04;109918;1247;69365;-75
2022/08/03 01:35:12;;;;;;;10.00;7.80;;;;;;;13.41;94.23;97448.30;110320;1246;68596;-73
2022/08/03 01:37:57;;;;;;;9.90;8.50;;;;;;;13.40;93.67;97450.79;110173;1247;59812;-74
2022/08/03 01:40:31;;;;;;;8.50;6.90;;;;;;;13.38;93.89;97453.80;110225;1247;59686;-73
2022/08/03 01:43:02;;;;;;;7.00;5.90;;;;;;;13.34;93.12;97452.71;110236;1247;71605;-75
2022/08/03 01:45:37;;;;;;;7.20;6.50;;;;;;;13.31;92.21;97456.63;109976;1247;69393;-73
2022/08/03 01:48:10;;;;;;;9.00;7.30;;;;;;;13.26;93.39;97454.23;110191;1247;69222;-73
2022/08/03 01:50:41;;;;;;;10.30;7.10;;;;;;;13.23;92.29;97455.19;110083;1247;59744;-73
2022/08/03 01:53:17;;;;;;;10.20;8.20;;;;;;;13.22;93.91;97454.38;110236;1247;59663;-72
2022/08/03 01:55:51;;;;;;;8.70;6.90;;;;;;;13.20;95.03;97452.73;110083;1247;70758;-74
2022/08/03 01:58:26;;;;;;;8.90;7.20;;;;;;;13.18;95.05;97452.22;110106;1247;68993;-73
2022/08/03 02:00:59;;;;;;;8.60;7.10;;;;;;;13.16;93.65;97449.98;110210;1247;69370;-74
2022/08/03 02:03:34;;;;;;;9.00;7.10;;;;;;;13.14;90.08;97450.79;110092;1247;59698;-73
2022/08/03 02:06:06;;;;;;;9.50;7.70;;;;;;;13.15;89.58;97451.45;110136;1247;59622;-74
2022/08/03 02:09:00;;;;;;;11.00;7.70;;;;;;;13.14;89.01;97450.98;110103;1247;70723;-75
2022/08/03 02:11:33;;;;;;;12.10;9.20;;;;;;;13.14;90.56;97449.43;110322;1247;69443;-75
2022/08/03 02:14:05;;;;;;;8.40;7.50;;;;;;;13.12;89.96;97447.47;110065;1247;69436;-75
2022/08/03 02:16:37;;;;;;;14.00;11.20;;;;;;;13.12;89.43;97446.94;110440;1247;59755;-75
2022/08/03 02:19:10;;;;;;;12.80;9.90;;;;;;;13.13;90.76;97445.29;110384;1247;59763;-73
2022/08/03 02:21:43;;;;;;;10.40;7.60;;;;;;;13.13;90.45;97447.41;110306;1247;71518;-76
2022/08/03 02:24:30;;;;;;;12.40;8.60;;;;;;;13.08;90.79;97447.08;110061;1247;69462;-72
2022/08/03 02:27:03;;;;;;;10.50;9.40;;;;;;;13.04;90.70;97446.36;110155;1247;69776;-75
2022/08/03 02:29:36;;;;;;;14.30;9.60;;;;;;;12.98;91.31;97445.67;110074;1247;59764;-73
2022/08/03 02:32:13;;;;;;;12.40;9.20;;;;;;;12.94;90.76;97443.40;110083;1247;59703;-74
2022/08/03 02:34:48;;;;;;;9.90;8.00;;;;;;;12.89;91.12;97446.21;110167;1247;71566;-76
2022/08/03 02:37:19;;;;;;;10.90;9.80;;;;;;;12.86;91.25;97449.61;110350;1247;69191;-74
2022/08/03 02:39:52;;;;;;;13.90;12.30;;;;;;;12.86;95.46;97450.14;110278;1247;69611;-74
2022/08/03 02:42:25;;;;;;;10.60;9.10;;;;;;;12.84;95.66;97445.91;110110;1247;59711;-72
2022/08/03 02:45:01;;;;;;;11.20;8.50;;;;;;;12.84;95.47;97444.20;110287;1247;59773;-74
2022/08/03 02:47:34;;;;;;;12.10;9.10;;;;;;;12.85;94.70;97449.70;110316;1247;70744;-74
2022/08/03 02:50:25;;;;;;;9.90;7.80;;;;;;;12.86;93.91;97449.96;110062;1247;68547;-74
2022/08/03 02:52:57;;;;;;;9.40;7.80;;;;;;;12.87;91.39;97448.70;110135;1247;69546;-74
2022/08/03 02:55:29;;;;;;;8.90;7.20;;;;;;;12.86;91.58;97451.02;109727;1249;59716;-74
2022/08/03 02:58:00;;;;;;;14.60;9.50;;;;;;;12.82;94.89;97452.58;110257;1247;59611;-73
2022/08/03 03:00:32;;;;;;;8.60;7.70;;;;;;;12.73;94.18;97452.39;110135;1247;71982;-73
2022/08/03 03:03:03;;;;;;;7.30;6.10;;;;;;;12.67;95.05;97456.89;110223;1247;69231;-74
2022/08/03 03:05:35;;;;;;;8.50;7.20;;;;;;;12.64;95.43;97457.55;110322;1247;69301;-74
2022/08/03 03:08:27;;;;;;;8.30;7.50;;;;;;;12.62;95.82;97458.94;110357;1245;59688;-73
2022/08/03 03:10:59;;;;;;;10.10;6.50;;;;;;;12.60;95.58;97461.50;110230;1247;59734;-73
2022/08/03 03:13:30;;;;;;;5.70;5.10;;;;;;;12.59;94.30;97458.27;110315;1247;71815;-74
2022/08/03 03:16:05;;;;;;;7.90;6.10;;;;;;;12.59;93.56;97462.16;110288;1247;68402;-71
2022/08/03 03:18:37;;;;;;;7.90;6.20;;;;;;;12.58;94.12;97466.03;110124;1247;69077;-74
2022/08/03 03:21:08;;;;;;;7.60;6.10;;;;;;;12.55;94.14;97468.19;110325;1247;59677;-74
2022/08/03 03:23:40;;;;;;;8.60;6.90;;;;;;;12.54;93.22;97470.27;110305;1246;59660;-74
2022/08/03 03:26:13;;;;;;;9.40;8.30;;;;;;;12.53;93.72;97472.61;110245;1247;70811;-74
2022/08/03 03:28:44;;;;;;;8.10;7.30;;;;;;;12.52;93.31;97475.23;110324;1247;68391;-70
2022/08/03 03:31:13;;;;;;;9.70;7.80;;;;;;;12.55;93.21;97475.05;110160;1247;67846;-70
2022/08/03 03:33:43;;;;;;;;;;;;;;;12.56;91.72;97475.61;110149;1247;59772;-70
2022/08/03 03:36:13;;;;;;;10.30;8.50;;;;;;;12.58;92.86;97481.79;110217;1247;59748;-72
2022/08/03 03:38:43;;;;;;;8.80;7.50;;;;;;;12.60;94.87;97480.97;110239;1247;69678;-73
2022/08/03 03:41:14;;;;;;;8.40;7.20;;;;;;;12.60;94.42;97480.77;110243;1247;68652;-72
2022/08/03 03:43:44;;;;;;;10.90;8.30;;;;;;;12.62;93.80;97482.13;110346;1247;69250;-70
2022/08/03 03:46:17;;;;;;;11.10;7.80;;;;;;;12.64;94.17;97486.73;110258;1247;59652;-70
2022/08/03 03:48:47;;;;;;;11.50;8.30;;;;;;;12.66;94.49;97486.55;110355;1247;59695;-71
2022/08/03 03:51:18;;;;;;;11.90;9.20;;;;;;;12.70;95.50;97485.15;110157;1247;71547;-69
2022/08/03 03:53:58;;;;;;;11.70;8.90;;;;;;;12.73;95.60;97487.67;110162;1247;69300;-72
2022/08/03 03:56:28;;;;;;;13.00;8.60;;;;;;;12.80;95.76;97492.27;110197;1247;69397;-71
2022/08/03 03:58:58;;;;;;;13.70;10.00;;;;;;;12.84;95.27;97491.94;110090;1247;59758;-71
2022/08/03 04:01:28;;;;;;;10.20;8.70;;;;;;;12.87;94.61;97491.67;110128;1247;59676;-70
2022/08/03 04:10:57;;;;;;;9.60;7.60;;;;;;;12.90;94.38;97498.47;110132;1245;71393;-70
2022/08/03 04:12:38;;;;;;;8.60;6.60;;;;;;;13.04;94.34;97506.45;110225;1246;59660;-70
2022/08/03 04:15:21;;;;;;;9.10;7.80;;;;;;;13.14;93.90;97507.71;110174;1247;59736;-70
2022/08/03 04:17:53;;;;;;;7.80;6.50;;;;;;;13.24;93.35;97509.35;110256;1247;70793;-71
2022/08/03 04:20:25;;;;;;;8.10;6.60;;;;;;;13.39;92.85;97514.23;110102;1245;69392;-70
2022/08/03 04:22:59;;;;;;;10.70;8.70;;;;;;;13.62;92.61;97517.75;110249;1247;69551;-70
2022/08/03 04:25:31;;;;;;;9.50;7.60;;;;;;;13.89;92.55;97519.20;110195;1247;59751;-70
2022/08/03 04:28:01;;;;;;;11.70;8.50;;;;;;;14.17;91.38;97524.99;110119;1247;59722;-70
2022/08/03 04:30:53;;;;;;;9.70;6.60;;;;;;;14.47;89.70;97528.40;110222;1246;70654;-70
2022/08/03 04:33:25;;;;;;;11.90;9.60;;;;;;;14.65;88.11;97531.42;110119;1245;68542;-71
2022/08/03 04:36:00;;;;;;;9.90;7.20;;;;;;;14.75;88.03;97527.55;110122;1246;68648;-70
2022/08/03 04:38:49;;;;;;;10.60;8.30;;;;;;;14.82;87.17;97530.30;110194;1247;59644;-72
2022/08/03 04:41:21;;;;;;;8.70;7.60;;;;;;;14.80;87.06;97534.86;110191;1245;60090;-72
2022/08/03 04:43:55;;;;;;;8.30;6.90;;;;;;;14.88;86.93;97537.98;110206;1247;71792;-69
2022/08/03 04:46:28;;;;;;;8.30;6.90;;;;;;;14.97;85.79;97532.05;110263;1247;70463;-71
2022/08/03 04:48:58;;;;;;;7.80;6.00;;;;;;;15.02;85.77;97535.83;110219;1247;68667;-71
2022/08/03 04:51:28;;;;;;;7.20;6.40;;;;;;;15.13;85.63;97529.33;110200;1247;59674;-71
2022/08/03 04:53:58;;;;;;;7.10;6.40;;;;;;;15.25;85.74;97528.75;110240;1247;59636;-71
2022/08/03 04:56:29;;;;;;;7.20;6.50;;;;;;;15.38;85.09;97527.59;110224;1245;71361;-70
2022/08/03 04:58:58;;;;;;;7.60;6.30;;;;;;;15.53;83.98;97528.25;110133;1247;68662;-71
2022/08/03 05:01:27;;;;;;;9.90;7.50;;;;;;;15.69;84.11;97523.84;110169;1247;69366;-71
2022/08/03 05:03:57;;;;;;;8.20;6.20;;;;;;;15.84;84.09;97526.89;110160;1247;59767;-71
2022/08/03 05:06:26;;;;;;;6.40;5.80;;;;;;;16.03;83.08;97536.02;110228;1247;59599;-72
2022/08/03 05:08:55;;;;;;;8.70;7.20;;;;;;;16.22;83.03;97534.92;110125;1247;70583;-70
2022/08/03 05:11:23;;;;;;;7.30;6.50;;;;;;;16.48;82.18;97536.74;110179;1246;69826;-71
2022/08/03 05:13:52;;;;;;;7.80;6.60;;;;;;;16.65;80.84;97533.36;110101;1247;68555;-71
2022/08/03 05:16:21;;;;;;;7.10;6.40;;;;;;;16.83;78.77;97538.52;110176;1247;59753;-74
2022/08/03 05:18:51;;;;;;;6.10;5.50;;;;;;;17.20;78.79;97536.68;110191;1247;59741;-72
2022/08/03 05:21:20;;;;;;;7.60;5.40;;;;;;;17.45;75.54;97538.11;110270;1246;71801;-74
2022/08/03 05:23:49;;;;;;;6.70;5.40;;;;;;;17.86;73.51;97540.13;110324;1247;68199;-71
2022/08/03 05:26:19;;;;;;;8.20;5.50;;;;;;;18.16;71.95;97537.39;110214;1247;68658;-73
2022/08/03 05:28:48;;;;;;;5.60;4.90;;;;;;;18.48;72.13;97545.90;110187;1247;59770;-73
2022/08/03 05:31:19;;;;;;;5.00;4.20;;;;;;;18.84;69.84;97543.23;110337;1247;59690;-71
2022/08/03 05:33:49;;;;;;;5.00;4.30;;;;;;;19.12;66.79;97541.68;110311;1247;71635;-71
2022/08/03 05:36:18;;;;;;;6.10;5.00;;;;;;;19.52;66.76;97540.98;110163;1247;67708;-72
2022/08/03 05:38:47;;;;;;;6.50;4.40;;;;;;;19.80;67.14;97545.10;110127;1246;68951;-72
2022/08/03 05:41:16;;;;;;;5.70;3.90;;;;;;;20.08;66.33;97546.38;110171;1247;59796;-70
2022/08/03 05:43:52;;;;;;;4.80;3.80;;;;;;;20.40;67.29;97550.70;110083;1247;59754;-73
2022/08/03 05:46:24;;;;;;;5.00;4.40;;;;;;;20.65;63.09;97547.73;110396;1247;71567;-72
2022/08/03 05:48:55;;;;;;;4.90;4.30;;;;;;;20.75;60.62;97548.92;110294;1247;69922;-72
2022/08/03 05:51:24;;;;;;;4.30;3.80;;;;;;;20.76;60.37;97551.30;110295;1247;69075;-73
2022/08/03 05:53:53;;;;;;;5.00;4.00;;;;;;;20.83;60.51;97556.98;110290;1247;59721;-70
2022/08/03 05:56:26;;;;;;;4.70;4.30;;;;;;;21.12;63.37;97560.09;110019;1247;59677;-72
2022/08/03 05:58:55;;;;;;;5.00;4.50;;;;;;;21.56;62.57;97560.63;109837;1247;72134;-72
2022/08/03 06:01:43;;;;;;;5.80;4.00;;;;;;;22.03;62.29;97559.15;109873;1247;67988;-71
2022/08/03 06:04:12;;;;;;;4.50;4.00;;;;;;;22.32;58.86;97558.79;110122;1247;68567;-77
2022/08/03 06:06:42;;;;;;;4.30;3.90;;;;;;;22.22;57.38;97558.09;110222;1247;59715;-75
2022/08/03 06:09:11;;;;;;;5.30;4.40;;;;;;;22.06;56.91;97559.35;110099;1247;59740;-74
2022/08/03 06:11:40;;;;;;;6.70;4.10;;;;;;;22.25;56.88;97562.38;110171;1246;71544;-75
2022/08/03 06:14:13;;;;;;;4.10;3.70;;;;;;;22.19;56.81;97559.83;110214;1247;69698;-75
2022/08/03 06:16:41;;;;;;;4.10;3.70;;;;;;;22.34;56.71;97558.90;110106;1247;70071;-77
2022/08/03 06:19:11;;;;;;;5.50;3.70;;;;;;;22.56;55.94;97560.69;110070;1247;59996;-75
2022/08/03 06:21:40;;;;;;;;;;;;;;;22.80;55.53;97560.71;110291;1247;59708;-75
2022/08/03 06:24:10;;;;;;;5.70;3.60;;;;;;;22.81;55.23;97557.89;110207;1246;72281;-75
2022/08/03 06:26:39;;;;;;;3.60;3.00;;;;;;;23.11;55.42;97558.20;110225;1247;68192;-75
2022/08/03 06:29:07;;;;;;;4.40;3.50;;;;;;;23.32;54.55;97560.79;110168;1247;69238;-75
2022/08/03 06:31:37;;;;;;;4.90;3.80;;;;;;;23.74;54.58;97560.01;110091;1248;59721;-75
2022/08/03 06:34:06;;;;;;;4.70;3.80;;;;;;;23.78;52.89;97559.59;110033;1247;59693;-75
2022/08/03 06:36:54;;;;;;;5.30;4.20;;;;;;;23.58;52.96;97560.73;110234;1247;71184;-75
2022/08/03 06:39:29;;;;;;;6.20;4.20;;;;;;;23.88;52.59;97554.96;110068;1247;69572;-75
2022/08/03 06:41:58;;;;;;;6.20;4.40;;;;;;;23.88;52.64;97559.72;110048;1247;69394;-77
2022/08/03 06:44:27;;;;;;;;;;;;;;;24.08;52.13;97562.44;110163;1247;59691;-74
2022/08/03 06:46:57;;;;;;;5.20;4.70;;;;;;;24.11;51.56;97562.04;110185;1247;60158;-74
2022/08/03 06:49:27;;;;;;;5.80;4.30;;;;;;;24.34;51.58;97557.50;110246;1247;70783;-76
2022/08/03 06:51:56;;;;;;;4.90;4.20;;;;;;;24.62;50.99;97557.48;109977;1247;69406;-75
2022/08/03 06:54:34;;;;;;;8.80;4.20;;;;;;;24.52;49.57;97557.55;110003;1247;69322;-75
2022/08/03 06:57:04;;;;;;;5.00;4.30;;;;;;;24.70;49.79;97561.27;110048;1247;59691;-75
2022/08/03 06:59:34;;;;;;;5.10;4.60;;;;;;;24.78;48.75;97556.14;110309;1247;59703;-75
2022/08/03 07:02:23;;;;;;;5.60;4.60;;;;;;;25.15;47.99;97557.02;110332;1247;71520;-75
2022/08/03 07:04:56;;;;;;;5.00;4.50;;;;;;;25.22;47.36;97556.11;110448;1247;69452;-76
2022/08/03 07:07:25;;;;;;;4.80;4.30;;;;;;;25.40;47.25;97558.93;110363;1246;69200;-74
2022/08/03 07:09:54;;;;;;;5.40;4.50;;;;;;;25.72;46.35;97553.14;110233;1247;59693;-73
2022/08/03 07:12:27;;;;;;;5.20;4.60;;;;;;;25.84;46.38;97552.03;110265;1246;59741;-76
2022/08/03 07:14:58;;;;;;;5.30;4.70;;;;;;;25.87;46.24;97549.55;110334;1246;71432;-76
2022/08/03 07:17:33;;;;;;;5.50;4.40;;;;;;;26.18;46.28;97547.81;110207;1246;68606;-76
2022/08/03 07:20:05;;;;;;;6.80;6.00;;;;;;;26.65;45.30;97550.45;110504;1247;69901;-76
2022/08/03 07:22:35;;;;;;;7.90;6.90;;;;;;;26.77;44.27;97549.96;110166;1247;59758;-76
2022/08/03 07:25:05;;;;;;;7.30;6.50;;;;;;;26.61;43.88;97547.17;110407;1247;59659;-76
2022/08/03 07:27:34;;;;;;;6.90;6.00;;;;;;;26.88;43.93;97546.92;110386;1247;71455;-75
2022/08/03 07:30:06;;;;;;;8.50;6.20;;;;;;;27.22;42.77;97544.22;110173;1245;69296;-76
2022/08/03 07:32:36;;;;;;;5.90;5.30;;;;;;;27.23;42.03;97542.59;110354;1247;69319;-75
2022/08/03 07:35:17;;;;;;;5.50;4.90;;;;;;;26.92;41.99;97538.41;110128;1247;60155;-75
2022/08/03 07:37:53;;;;;;;6.70;4.70;;;;;;;26.94;42.04;97540.46;110211;1247;59696;-77
2022/08/03 07:40:22;;;;;;;5.00;4.60;;;;;;;26.94;41.61;97539.19;110572;1247;71594;-76
2022/08/03 07:42:59;;;;;;;5.70;5.00;;;;;;;26.85;41.10;97541.45;110283;1247;70078;-76
2022/08/03 07:45:28;;;;;;;;;;;;;;;26.76;40.89;97545.27;110279;1246;70991;-76
2022/08/03 07:47:57;;;;;;;4.90;4.40;;;;;;;26.77;41.30;97545.92;110287;1247;59726;-76
2022/08/03 07:50:26;;;;;;;4.90;4.40;;;;;;;26.82;41.94;97546.77;110266;1247;59656;-77
2022/08/03 07:52:56;;;;;;;4.70;4.30;;;;;;;27.16;41.70;97548.55;110276;1247;72621;-75
2022/08/03 07:55:26;;;;;;;6.60;5.20;;;;;;;27.81;40.50;97549.94;110438;1247;69390;-78
2022/08/03 07:58:25;;;;;;;5.30;4.20;;;;;;;28.12;39.60;97548.38;110548;1245;69393;-74
2022/08/03 08:00:53;;;;;;;5.80;4.90;;;;;;;28.62;38.20;97549.67;110488;1247;58952;-74
2022/08/03 08:03:23;;;;;;;6.50;4.40;;;;;;;29.00;37.38;97550.05;110553;1247;60045;-77
2022/08/03 08:05:52;;;;;;;5.20;4.80;;;;;;;29.36;35.51;97550.41;110403;1247;70806;-77
2022/08/03 08:08:21;;;;;;;5.30;4.80;;;;;;;29.54;32.55;97545.25;110509;1247;70162;-78
2022/08/03 08:10:50;;;;;;;;;;;;;;;29.54;32.58;97549.69;110363;1247;69416;-76
2022/08/03 08:13:26;;;;;;;4.80;4.40;;;;;;;29.66;33.06;97545.05;110185;1248;59725;-75
2022/08/03 08:15:54;;;;;;;;;;;;;;;29.84;33.03;97539.27;110271;1246;59644;-76
2022/08/03 08:18:28;;;;;;;4.50;4.10;;;;;;;29.90;33.18;97543.31;110184;1247;72011;-77
2022/08/03 08:20:57;;;;;;;5.30;4.10;;;;;;;30.37;32.44;97536.81;110178;1247;67697;-78
2022/08/03 08:23:26;;;;;;;4.50;4.10;;;;;;;30.57;31.54;97536.04;110208;1247;69319;-78
2022/08/03 08:26:11;;;;;;;4.40;3.90;;;;;;;30.62;31.25;97536.63;109975;1247;59710;-77
2022/08/03 08:28:41;;;;;;;5.10;3.90;;;;;;;31.06;32.19;97538.05;110743;1246;59684;-77
2022/08/03 08:31:09;;;;;;;4.10;3.80;;;;;;;31.42;31.05;97537.30;110417;1248;71601;-77
2022/08/03 08:33:38;;;;;;;4.20;3.80;;;;;;;31.89;31.46;97540.61;110421;1247;68638;-77
2022/08/03 08:36:27;;;;;;;4.60;4.20;;;;;;;32.24;29.36;97533.98;110233;1247;69471;-77
2022/08/03 08:38:56;;;;;;;4.70;3.90;;;;;;;32.36;29.54;97532.59;110157;1247;59733;-78
2022/08/03 08:41:25;;;;;;;4.50;4.00;;;;;;;32.28;30.10;97534.48;110126;1247;59632;-76
2022/08/03 08:44:00;;;;;;;5.30;4.80;;;;;;;32.19;29.61;97536.01;110170;1247;71129;-77
2022/08/03 08:46:33;;;;;;;4.40;4.00;;;;;;;32.14;28.48;97538.05;110205;1247;69435;-76
2022/08/03 08:49:02;;;;;;;4.80;4.40;;;;;;;32.44;28.91;97532.73;110101;1247;69375;-78
2022/08/03 08:51:37;;;;;;;3.70;3.40;;;;;;;32.69;27.75;97535.14;110186;1247;59685;-78
2022/08/03 08:54:26;;;;;;;4.90;4.50;;;;;;;32.23;27.57;97533.79;109977;1247;59760;-77
2022/08/03 08:56:58;;;;;;;4.50;4.10;;;;;;;31.09;29.31;97539.47;109915;1247;71502;-78
2022/08/03 08:59:27;;;;;;;4.70;4.30;;;;;;;31.41;29.70;97537.58;110201;1248;69836;-74
2022/08/03 09:02:16;;;;;;;4.20;3.80;;;;;;;31.31;29.81;97535.46;110020;1247;69299;-75
2022/08/03 09:04:47;;;;;;;4.40;4.00;;;;;;;32.12;29.84;97540.92;110593;1247;59706;-76
2022/08/03 09:07:17;;;;;;;4.20;3.80;;;;;;;32.37;28.06;97537.19;110809;1247;59719;-76
2022/08/03 09:09:48;;;;;;;5.40;4.90;;;;;;;32.30;28.98;97541.61;110265;1247;71640;-79
2022/08/03 09:12:40;;;;;;;4.40;4.00;;;;;;;32.36;29.49;97539.80;110285;1247;68645;-77
2022/08/03 09:15:31;;;;;;;4.70;4.30;;;;;;;32.32;28.89;97535.89;110339;1247;68454;-77
2022/08/03 09:18:02;;;;;;;4.20;3.60;;;;;;;32.53;27.97;97532.58;110085;1248;59740;-74
2022/08/03 09:20:33;;;;;;;4.00;3.70;;;;;;;32.97;28.52;97531.46;110278;1247;59724;-77
2022/08/03 09:23:08;;;;;;;4.30;3.90;;;;;;;32.89;27.52;97529.58;110322;1247;71468;-77
2022/08/03 09:25:58;;;;;;;3.50;3.20;;;;;;;33.19;27.33;97524.14;110299;1247;67562;-79
2022/08/03 09:28:34;;;;;;;6.00;3.80;;;;;;;33.52;27.34;97526.14;110592;1247;68994;-77
2022/08/03 09:31:42;;;;;;;4.30;3.70;;;;;;;34.13;27.50;97525.17;110677;1247;59686;-76
2022/08/03 09:34:17;;;;;;;4.50;4.10;;;;;;;34.40;27.01;97526.89;110562;1247;59748;-76
2022/08/03 09:36:52;;;;;;;4.60;3.80;;;;;;;33.90;26.41;97520.42;110832;1248;71145;-76
2022/08/03 09:39:36;;;;;;;4.30;3.70;;;;;;;34.03;26.28;97517.34;110311;1249;68940;-78
2022/08/03 09:42:22;;;;;;;4.20;3.60;;;;;;;34.28;26.82;97514.05;110249;1250;69903;-77
2022/08/03 09:45:03;;;;;;;4.50;4.10;;;;;;;34.32;25.99;97511.91;110207;1250;59770;-77
2022/08/03 09:47:35;;;;;;;4.20;3.80;;;;;;;34.59;25.47;97507.64;110044;1250;59701;-76
2022/08/03 09:50:17;;;;;;;4.90;3.60;;;;;;;34.89;26.07;97510.63;110025;1250;71452;-78
2022/08/03 09:52:51;;;;;;;4.90;3.50;;;;;;;35.09;25.40;97504.98;110265;1247;69231;-77
2022/08/03 09:55:27;;;;;;;4.40;4.10;;;;;;;34.70;25.11;97507.63;110071;1247;69619;-77
2022/08/03 09:58:23;;;;;;;4.00;3.60;;;;;;;34.16;25.43;97500.45;110077;1248;59750;-79
2022/08/03 10:00:59;;;;;;;4.20;3.80;;;;;;;34.20;26.90;97500.49;110207;1247;59719;-80
2022/08/03 10:03:34;;;;;;;3.70;3.30;;;;;;;34.90;25.60;97498.52;110539;1247;71518;-78
2022/08/03 10:06:26;;;;;;;3.70;3.30;;;;;;;35.61;25.06;97499.93;110810;1248;69065;-78
2022/08/03 10:09:23;;;;;;;3.20;2.90;;;;;;;35.94;24.79;97502.98;110171;1248;69089;-78
2022/08/03 10:11:56;;;;;;;3.50;3.20;;;;;;;35.67;23.63;97497.44;110361;1247;59689;-77
2022/08/03 10:14:30;;;;;;;3.10;2.80;;;;;;;35.58;23.72;97499.48;110173;1248;59625;-78
2022/08/03 10:17:04;;;;;;;3.10;2.80;;;;;;;36.09;23.65;97502.02;110251;1248;71636;-76
2022/08/03 10:19:35;;;;;;;3.30;3.00;;;;;;;35.45;22.45;97496.37;110027;1248;68873;-77
2022/08/03 10:22:22;;;;;;;2.80;2.60;;;;;;;34.79;23.21;97492.63;110168;1247;68594;-78
2022/08/03 10:25:02;;;;;;;3.30;2.70;;;;;;;35.33;23.72;97496.71;109967;1247;59662;-79
2022/08/03 10:27:41;;;;;;;3.10;2.40;;;;;;;35.56;22.74;97496.92;110216;1247;59621;-78
2022/08/03 10:30:11;;;;;;;3.70;2.60;;;;;;;35.70;21.87;97498.90;110292;1247;70580;-77
2022/08/03 10:32:56;;;;;;;2.80;2.10;;;;;;;35.71;21.79;97494.44;110169;1246;68767;-77
2022/08/03 10:35:29;;;;;;;2.70;2.50;;;;;;;35.22;22.19;97493.37;109971;1248;68496;-76
2022/08/03 10:38:31;;;;;;;2.70;2.40;;;;;;;35.71;22.50;97493.52;110046;1249;59726;-78
2022/08/03 10:41:02;;;;;;;3.00;2.60;;;;;;;36.08;21.98;97485.70;110077;1247;59683;-76
2022/08/03 10:43:57;;;;;;;9.90;4.00;;;;;;;36.14;21.91;97482.64;110295;1247;71611;-79
2022/08/03 10:46:28;;;;;;;4.50;3.00;;;;;;;35.27;22.69;97480.77;110156;1247;68868;-78
2022/08/03 10:48:58;;;;;;;3.10;2.80;;;;;;;35.54;22.74;97478.83;110249;1247;69418;-77
2022/08/03 10:51:31;;;;;;;3.60;2.50;;;;;;;35.60;22.97;97483.08;110323;1246;59738;-78
2022/08/03 10:54:00;;;;;;;2.70;2.50;;;;;;;35.34;22.51;97482.41;110310;1247;59773;-78
2022/08/03 10:59:44;;;;;;;2.40;2.10;;;;;;;35.34;22.26;97475.13;110314;1247;69744;-79
2022/08/03 11:02:15;;;;;;;2.50;2.30;;;;;;;35.45;22.30;97476.19;110537;1245;68562;-77
2022/08/03 11:05:28;;;;;;;3.20;2.10;;;;;;;35.47;21.41;97475.92;110901;1247;59751;-78
2022/08/03 11:08:31;;;;;;;3.90;2.30;;;;;;;35.39;21.75;97469.55;110026;1250;59694;-77
2022/08/03 11:11:27;;;;;;;3.40;2.50;;;;;;;35.45;20.81;97470.11;110061;1250;72633;-75
2022/08/03 11:13:59;;;;;;;2.50;2.30;;;;;;;35.58;21.39;97461.68;110289;1247;70116;-78
2022/08/03 11:17:05;;;;;;;2.50;2.10;;;;;;;35.79;23.00;97462.63;110204;1247;68647;-78
2022/08/03 11:19:49;;;;;;;2.30;2.10;;;;;;;36.01;20.88;97454.10;110146;1247;59704;-79
2022/08/03 11:22:48;;;;;;;2.40;2.10;;;;;;;36.18;20.78;97453.73;109912;1248;59773;-77
2022/08/03 11:25:19;;;;;;;3.20;2.00;;;;;;;36.15;21.22;97450.86;110180;1247;71567;-78
2022/08/03 11:28:37;;;;;;;2.40;2.20;;;;;;;36.21;20.94;97446.33;110308;1247;69363;-78
2022/08/03 11:31:26;;;;;;;2.80;2.00;;;;;;;36.16;20.73;97443.90;110367;1247;69409;-77
2022/08/03 11:34:19;;;;;;;2.30;2.00;;;;;;;36.29;20.49;97442.40;110412;1247;59767;-76
2022/08/03 11:37:25;;;;;;;2.50;2.30;;;;;;;36.37;21.03;97433.90;110678;1247;59679;-77
2022/08/03 11:40:06;;;;;;;2.00;1.70;;;;;;;36.54;20.58;97431.90;110370;1247;71682;-77
2022/08/03 11:42:35;;;;;;;2.20;2.00;;;;;;;36.01;19.75;97434.50;110320;1247;69319;-77
2022/08/03 11:45:07;;;;;;;2.10;1.80;;;;;;;35.99;20.22;97428.02;110465;1247;69224;-77
2022/08/03 11:47:38;;;;;;;2.80;2.20;;;;;;;35.06;20.32;97424.89;110612;1247;59717;-78
2022/08/03 11:50:19;;;;;;;2.10;1.90;;;;;;;35.24;20.53;97422.48;110205;1247;59677;-78
2022/08/03 11:52:49;;;;;;;2.90;2.30;;;;;;;35.41;21.78;97419.27;110276;1247;70740;-77
2022/08/03 11:55:20;;;;;;;2.90;2.40;;;;;;;35.67;22.22;97418.33;109897;1250;69210;-77
2022/08/03 11:57:49;;;;;;;2.20;2.00;;;;;;;35.47;21.43;97418.36;110095;1249;69199;-78
2022/08/03 12:00:38;;;;;;;3.20;2.30;;;;;;;35.69;21.16;97412.08;110242;1247;59728;-77
2022/08/03 12:03:13;;;;;;;2.90;2.40;;;;;;;35.85;22.40;97413.02;110244;1247;59747;-75
2022/08/03 12:05:50;;;;;;;2.80;2.10;;;;;;;35.89;22.31;97409.86;110261;1247;71334;-77
2022/08/03 12:08:25;;;;;;;2.50;2.30;;;;;;;35.81;21.91;97405.48;110288;1247;69161;-77
2022/08/03 12:10:56;;;;;;;2.70;2.20;;;;;;;35.49;22.53;97408.30;110395;1246;69269;-76
2022/08/03 12:13:25;;;;;;;2.20;2.00;;;;;;;35.66;22.22;97407.33;110229;1247;59712;-77